sensor_id;sensor_type;location;lat;lon;timestamp;P1;durP1;ratioP1;P2;durP2;ratioP2
78053;SDS011;67726;45.636;11.752;2023-02-13T00:00:04;130.27;;;61.42;;
78053;SDS011;67726;45.636;11.752;2023-02-13T00:02:32;117.20;;;58.03;;
78053;SDS011;67726;45.636;11.752;2023-02-13T00:04:57;112.20;;;54.03;;
78053;SDS011;67726;45.636;11.752;2023-02-13T00:07:23;112.72;;;51.80;;
78053;SDS011;67726;45.636;11.752;2023-02-13T00:09:49;107.13;;;50.37;;
78053;SDS011;67726;45.636;11.752;2023-02-13T00:12:14;120.32;;;55.10;;
78053;SDS011;67726;45.636;11.752;2023-02-13T00:14:40;114.13;;;51.67;;
78053;SDS011;67726;45.636;11.752;2023-02-13T00:17:06;121.93;;;55.17;;
78053;SDS011;67726;45.636;11.752;2023-02-13T00:19:31;107.45;;;50.45;;
78053;SDS011;67726;45.636;11.752;2023-02-13T00:21:57;122.45;;;53.70;;
78053;SDS011;67726;45.636;11.752;2023-02-13T00:24:24;116.63;;;53.40;;
78053;SDS011;67726;45.636;11.752;2023-02-13T00:26:50;121.85;;;51.85;;
78053;SDS011;67726;45.636;11.752;2023-02-13T00:29:17;116.70;;;52.03;;
78053;SDS011;67726;45.636;11.752;2023-02-13T00:31:42;111.10;;;50.40;;
78053;SDS011;67726;45.636;11.752;2023-02-13T00:34:08;113.33;;;51.53;;
78053;SDS011;67726;45.636;11.752;2023-02-13T00:36:34;104.75;;;49.97;;
78053;SDS011;67726;45.636;11.752;2023-02-13T00:38:59;110.97;;;50.87;;
78053;SDS011;67726;45.636;11.752;2023-02-13T00:41:25;111.93;;;51.33;;
78053;SDS011;67726;45.636;11.752;2023-02-13T00:43:51;107.43;;;49.90;;
78053;SDS011;67726;45.636;11.752;2023-02-13T00:46:17;106.95;;;48.22;;
78053;SDS011;67726;45.636;11.752;2023-02-13T00:48:43;106.90;;;46.58;;
78053;SDS011;67726;45.636;11.752;2023-02-13T00:51:09;96.97;;;46.72;;
78053;SDS011;67726;45.636;11.752;2023-02-13T00:53:35;95.73;;;44.90;;
78053;SDS011;67726;45.636;11.752;2023-02-13T00:56:01;95.93;;;47.72;;
78053;SDS011;67726;45.636;11.752;2023-02-13T00:58:28;113.40;;;48.63;;
78053;SDS011;67726;45.636;11.752;2023-02-13T01:00:53;99.73;;;46.37;;
78053;SDS011;67726;45.636;11.752;2023-02-13T01:03:20;101.72;;;45.10;;
78053;SDS011;67726;45.636;11.752;2023-02-13T01:05:46;91.47;;;45.58;;
78053;SDS011;67726;45.636;11.752;2023-02-13T01:08:13;95.13;;;43.77;;
78053;SDS011;67726;45.636;11.752;2023-02-13T01:10:41;98.13;;;47.90;;
78053;SDS011;67726;45.636;11.752;2023-02-13T01:13:07;105.63;;;48.13;;
78053;SDS011;67726;45.636;11.752;2023-02-13T01:15:34;98.80;;;46.38;;
78053;SDS011;67726;45.636;11.752;2023-02-13T01:17:59;85.80;;;41.40;;
78053;SDS011;67726;45.636;11.752;2023-02-13T01:20:25;88.80;;;39.40;;
78053;SDS011;67726;45.636;11.752;2023-02-13T01:22:52;89.28;;;42.58;;
78053;SDS011;67726;45.636;11.752;2023-02-13T01:25:18;91.72;;;44.42;;
78053;SDS011;67726;45.636;11.752;2023-02-13T01:27:44;86.60;;;38.93;;
78053;SDS011;67726;45.636;11.752;2023-02-13T01:30:10;87.60;;;44.40;;
78053;SDS011;67726;45.636;11.752;2023-02-13T01:32:41;88.03;;;41.83;;
78053;SDS011;67726;45.636;11.752;2023-02-13T01:35:08;82.80;;;39.53;;
78053;SDS011;67726;45.636;11.752;2023-02-13T01:37:35;81.78;;;43.15;;
78053;SDS011;67726;45.636;11.752;2023-02-13T01:40:01;87.63;;;42.55;;
78053;SDS011;67726;45.636;11.752;2023-02-13T01:42:29;86.70;;;40.80;;
78053;SDS011;67726;45.636;11.752;2023-02-13T01:45:38;82.97;;;41.05;;
78053;SDS011;67726;45.636;11.752;2023-02-13T01:48:36;87.97;;;42.07;;
78053;SDS011;67726;45.636;11.752;2023-02-13T01:51:03;83.40;;;39.97;;
78053;SDS011;67726;45.636;11.752;2023-02-13T01:53:38;89.55;;;43.78;;
78053;SDS011;67726;45.636;11.752;2023-02-13T01:56:15;90.45;;;41.72;;
78053;SDS011;67726;45.636;11.752;2023-02-13T01:58:45;92.20;;;44.88;;
78053;SDS011;67726;45.636;11.752;2023-02-13T02:01:15;97.20;;;42.80;;
78053;SDS011;67726;45.636;11.752;2023-02-13T02:06:11;86.70;;;42.72;;
78053;SDS011;67726;45.636;11.752;2023-02-13T02:08:46;79.78;;;40.20;;
78053;SDS011;67726;45.636;11.752;2023-02-13T02:11:26;78.88;;;39.85;;
78053;SDS011;67726;45.636;11.752;2023-02-13T02:13:58;80.27;;;39.53;;
78053;SDS011;67726;45.636;11.752;2023-02-13T02:16:26;82.82;;;41.80;;
78053;SDS011;67726;45.636;11.752;2023-02-13T02:18:52;80.78;;;41.30;;
78053;SDS011;67726;45.636;11.752;2023-02-13T02:24:52;86.68;;;39.47;;
78053;SDS011;67726;45.636;11.752;2023-02-13T02:27:49;83.65;;;39.65;;
78053;SDS011;67726;45.636;11.752;2023-02-13T02:35:30;78.50;;;38.27;;
78053;SDS011;67726;45.636;11.752;2023-02-13T02:38:07;73.63;;;35.60;;
78053;SDS011;67726;45.636;11.752;2023-02-13T02:48:49;65.60;;;32.63;;
78053;SDS011;67726;45.636;11.752;2023-02-13T02:51:40;62.28;;;30.52;;
78053;SDS011;67726;45.636;11.752;2023-02-13T02:57:31;59.30;;;28.27;;
78053;SDS011;67726;45.636;11.752;2023-02-13T03:00:20;53.05;;;27.08;;
78053;SDS011;67726;45.636;11.752;2023-02-13T03:03:08;51.57;;;25.40;;
78053;SDS011;67726;45.636;11.752;2023-02-13T03:06:00;47.65;;;24.90;;
78053;SDS011;67726;45.636;11.752;2023-02-13T03:08:40;51.17;;;25.10;;
78053;SDS011;67726;45.636;11.752;2023-02-13T03:11:26;48.03;;;24.38;;
78053;SDS011;67726;45.636;11.752;2023-02-13T03:14:12;51.75;;;24.10;;
78053;SDS011;67726;45.636;11.752;2023-02-13T03:16:40;44.73;;;22.23;;
78053;SDS011;67726;45.636;11.752;2023-02-13T03:23:02;43.85;;;19.85;;
78053;SDS011;67726;45.636;11.752;2023-02-13T03:31:56;42.90;;;21.67;;
78053;SDS011;67726;45.636;11.752;2023-02-13T03:34:25;39.40;;;21.65;;
78053;SDS011;67726;45.636;11.752;2023-02-13T03:37:18;39.45;;;20.55;;
78053;SDS011;67726;45.636;11.752;2023-02-13T03:40:17;44.13;;;21.40;;
78053;SDS011;67726;45.636;11.752;2023-02-13T03:42:52;45.17;;;21.55;;
78053;SDS011;67726;45.636;11.752;2023-02-13T03:45:37;41.60;;;21.30;;
78053;SDS011;67726;45.636;11.752;2023-02-13T03:48:22;41.47;;;20.30;;
78053;SDS011;67726;45.636;11.752;2023-02-13T03:51:11;43.67;;;20.52;;
78053;SDS011;67726;45.636;11.752;2023-02-13T03:53:53;43.42;;;23.33;;
78053;SDS011;67726;45.636;11.752;2023-02-13T03:56:21;46.17;;;22.90;;
78053;SDS011;67726;45.636;11.752;2023-02-13T03:59:07;47.60;;;22.57;;
78053;SDS011;67726;45.636;11.752;2023-02-13T04:01:43;43.20;;;21.77;;
78053;SDS011;67726;45.636;11.752;2023-02-13T04:06:53;47.72;;;21.85;;
78053;SDS011;67726;45.636;11.752;2023-02-13T04:09:31;45.50;;;23.13;;
78053;SDS011;67726;45.636;11.752;2023-02-13T04:17:04;48.00;;;23.97;;
78053;SDS011;67726;45.636;11.752;2023-02-13T04:19:32;57.88;;;26.52;;
78053;SDS011;67726;45.636;11.752;2023-02-13T04:21:59;55.83;;;28.98;;
78053;SDS011;67726;45.636;11.752;2023-02-13T04:24:26;63.42;;;27.83;;
78053;SDS011;67726;45.636;11.752;2023-02-13T04:26:53;57.85;;;27.42;;
78053;SDS011;67726;45.636;11.752;2023-02-13T04:29:23;51.73;;;26.73;;
78053;SDS011;67726;45.636;11.752;2023-02-13T04:31:51;53.67;;;25.63;;
78053;SDS011;67726;45.636;11.752;2023-02-13T04:34:17;51.90;;;24.40;;
78053;SDS011;67726;45.636;11.752;2023-02-13T04:36:42;48.03;;;24.13;;
78053;SDS011;67726;45.636;11.752;2023-02-13T04:39:08;50.10;;;25.27;;
78053;SDS011;67726;45.636;11.752;2023-02-13T04:41:35;48.80;;;25.50;;
78053;SDS011;67726;45.636;11.752;2023-02-13T04:44:00;49.80;;;25.65;;
78053;SDS011;67726;45.636;11.752;2023-02-13T04:46:26;50.77;;;26.53;;
78053;SDS011;67726;45.636;11.752;2023-02-13T04:48:51;48.22;;;25.20;;
78053;SDS011;67726;45.636;11.752;2023-02-13T04:51:17;45.70;;;23.30;;
78053;SDS011;67726;45.636;11.752;2023-02-13T04:53:43;49.93;;;23.63;;
78053;SDS011;67726;45.636;11.752;2023-02-13T04:56:08;51.13;;;23.73;;
78053;SDS011;67726;45.636;11.752;2023-02-13T04:58:34;48.93;;;23.97;;
78053;SDS011;67726;45.636;11.752;2023-02-13T05:01:00;44.75;;;21.85;;
78053;SDS011;67726;45.636;11.752;2023-02-13T05:03:25;49.13;;;22.97;;
78053;SDS011;67726;45.636;11.752;2023-02-13T05:05:51;44.25;;;22.85;;
78053;SDS011;67726;45.636;11.752;2023-02-13T05:08:17;49.77;;;22.87;;
78053;SDS011;67726;45.636;11.752;2023-02-13T05:10:42;53.03;;;23.92;;
78053;SDS011;67726;45.636;11.752;2023-02-13T05:13:08;47.27;;;21.77;;
78053;SDS011;67726;45.636;11.752;2023-02-13T05:15:34;50.80;;;24.23;;
78053;SDS011;67726;45.636;11.752;2023-02-13T05:17:59;50.73;;;25.60;;
78053;SDS011;67726;45.636;11.752;2023-02-13T05:20:25;50.30;;;25.03;;
78053;SDS011;67726;45.636;11.752;2023-02-13T05:22:52;49.83;;;23.77;;
78053;SDS011;67726;45.636;11.752;2023-02-13T05:25:37;45.67;;;22.70;;
78053;SDS011;67726;45.636;11.752;2023-02-13T05:28:04;46.78;;;24.02;;
78053;SDS011;67726;45.636;11.752;2023-02-13T05:30:50;45.95;;;22.05;;
78053;SDS011;67726;45.636;11.752;2023-02-13T05:33:15;42.63;;;20.27;;
78053;SDS011;67726;45.636;11.752;2023-02-13T05:35:41;41.53;;;20.00;;
78053;SDS011;67726;45.636;11.752;2023-02-13T05:38:06;40.22;;;19.20;;
78053;SDS011;67726;45.636;11.752;2023-02-13T05:40:32;44.27;;;21.13;;
78053;SDS011;67726;45.636;11.752;2023-02-13T05:42:58;37.45;;;19.30;;
78053;SDS011;67726;45.636;11.752;2023-02-13T05:45:23;38.57;;;18.77;;
78053;SDS011;67726;45.636;11.752;2023-02-13T05:47:49;41.07;;;19.67;;
78053;SDS011;67726;45.636;11.752;2023-02-13T05:50:14;40.75;;;19.42;;
78053;SDS011;67726;45.636;11.752;2023-02-13T05:52:40;36.10;;;18.07;;
78053;SDS011;67726;45.636;11.752;2023-02-13T05:55:06;40.17;;;18.00;;
78053;SDS011;67726;45.636;11.752;2023-02-13T05:57:32;40.95;;;19.95;;
78053;SDS011;67726;45.636;11.752;2023-02-13T05:59:57;41.97;;;20.53;;
78053;SDS011;67726;45.636;11.752;2023-02-13T06:02:23;78.47;;;32.07;;
78053;SDS011;67726;45.636;11.752;2023-02-13T06:04:49;62.72;;;24.48;;
78053;SDS011;67726;45.636;11.752;2023-02-13T06:07:14;46.40;;;20.67;;
78053;SDS011;67726;45.636;11.752;2023-02-13T06:09:40;54.13;;;23.88;;
78053;SDS011;67726;45.636;11.752;2023-02-13T06:12:05;43.07;;;18.47;;
78053;SDS011;67726;45.636;11.752;2023-02-13T06:14:31;40.17;;;19.75;;
78053;SDS011;67726;45.636;11.752;2023-02-13T06:16:57;35.17;;;16.80;;
78053;SDS011;67726;45.636;11.752;2023-02-13T06:19:24;35.72;;;18.02;;
78053;SDS011;67726;45.636;11.752;2023-02-13T06:21:49;40.67;;;20.07;;
78053;SDS011;67726;45.636;11.752;2023-02-13T06:24:15;58.17;;;35.45;;
78053;SDS011;67726;45.636;11.752;2023-02-13T06:26:41;52.03;;;27.53;;
78053;SDS011;67726;45.636;11.752;2023-02-13T06:29:06;54.28;;;32.03;;
78053;SDS011;67726;45.636;11.752;2023-02-13T06:31:33;54.93;;;31.97;;
78053;SDS011;67726;45.636;11.752;2023-02-13T06:33:59;56.17;;;30.95;;
78053;SDS011;67726;45.636;11.752;2023-02-13T06:36:24;59.17;;;30.80;;
78053;SDS011;67726;45.636;11.752;2023-02-13T06:38:50;72.90;;;32.63;;
78053;SDS011;67726;45.636;11.752;2023-02-13T06:41:15;77.13;;;32.77;;
78053;SDS011;67726;45.636;11.752;2023-02-13T06:43:41;68.85;;;29.92;;
78053;SDS011;67726;45.636;11.752;2023-02-13T06:46:07;53.23;;;25.90;;
78053;SDS011;67726;45.636;11.752;2023-02-13T06:48:33;49.90;;;22.50;;
78053;SDS011;67726;45.636;11.752;2023-02-13T06:50:59;41.90;;;19.83;;
78053;SDS011;67726;45.636;11.752;2023-02-13T06:53:26;35.70;;;18.90;;
78053;SDS011;67726;45.636;11.752;2023-02-13T06:55:53;35.22;;;16.60;;
78053;SDS011;67726;45.636;11.752;2023-02-13T06:58:20;37.78;;;22.60;;
78053;SDS011;67726;45.636;11.752;2023-02-13T07:00:46;40.50;;;18.92;;
78053;SDS011;67726;45.636;11.752;2023-02-13T07:03:12;31.13;;;17.23;;
78053;SDS011;67726;45.636;11.752;2023-02-13T07:05:41;32.35;;;16.75;;
78053;SDS011;67726;45.636;11.752;2023-02-13T07:08:08;31.65;;;16.38;;
78053;SDS011;67726;45.636;11.752;2023-02-13T07:10:37;33.00;;;16.23;;
78053;SDS011;67726;45.636;11.752;2023-02-13T07:13:06;31.20;;;16.53;;
78053;SDS011;67726;45.636;11.752;2023-02-13T07:15:33;30.50;;;14.60;;
